Time;durP1;ratioP1;P1;durP2;ratioP2;P2;SDS_P1;SDS_P2;PMS_P1;PMS_P2;Temp;Humidity;BMP_temperature;BMP_pressure;BME280_temperature;BME280_humidity;BME280_pressure;Samples;Min_cycle;Max_cycle;Signal;HPM_P1;HPM_P2
2021/12/22 00:00:24;;;;;;;74.53;33.10;;;-1.10;99.90;;;;;;4996288;28;20631;-80
2021/12/22 00:02:50;;;;;;;75.40;33.10;;;-1.20;99.90;;;;;;4996582;28;20110;-78
2021/12/22 00:05:22;;;;;;;75.30;34.53;;;-1.30;99.90;;;;;;4998937;28;20431;-80
2021/12/22 00:07:48;;;;;;;75.22;33.88;;;-1.20;99.90;;;;;;5000153;28;20750;-79
2021/12/22 00:10:14;;;;;;;81.47;34.63;;;-1.20;99.90;;;;;;4988688;28;20042;-80
2021/12/22 00:12:40;;;;;;;79.87;34.60;;;-1.30;99.90;;;;;;4998656;28;20034;-80
2021/12/22 00:15:06;;;;;;;79.00;34.53;;;-1.40;99.90;;;;;;4996509;28;20380;-80
2021/12/22 00:17:32;;;;;;;80.63;33.73;;;-1.50;99.90;;;;;;4998061;28;20018;-80
2021/12/22 00:19:58;;;;;;;77.77;33.30;;;-1.50;99.90;;;;;;4997271;28;20611;-79
2021/12/22 00:22:23;;;;;;;81.57;34.70;;;-1.60;99.90;;;;;;4980106;28;20423;-81
2021/12/22 00:24:49;;;;;;;72.93;33.40;;;-1.60;99.90;;;;;;4979618;28;20026;-80
2021/12/22 00:27:15;;;;;;;72.80;32.73;;;-1.60;99.90;;;;;;4978854;28;20053;-79
2021/12/22 00:29:45;;;;;;;72.00;32.93;;;-1.70;99.90;;;;;;4995800;28;20069;-79
2021/12/22 00:32:13;;;;;;;74.23;31.57;;;-1.70;99.90;;;;;;4994993;28;20337;-81
2021/12/22 00:34:47;;;;;;;72.40;33.63;;;-1.70;99.90;;;;;;4994758;28;20301;-79
2021/12/22 00:37:14;;;;;;;91.80;37.30;;;-1.70;99.90;;;;;;4995819;28;20301;-80
2021/12/22 00:39:40;;;;;;;84.27;38.10;;;-1.60;99.90;;;;;;4995928;28;20746;-80
2021/12/22 00:42:07;;;;;;;79.53;33.80;;;-1.30;99.90;;;;;;4978750;28;20284;-81
2021/12/22 00:44:32;;;;;;;71.70;31.90;;;-1.00;99.90;;;;;;4978684;28;20173;-79
2021/12/22 00:46:58;;;;;;;64.13;29.67;;;-1.00;99.90;;;;;;4978389;28;20754;-78
2021/12/22 00:49:24;;;;;;;63.07;28.87;;;-1.20;99.90;;;;;;4978421;28;20061;-81
2021/12/22 00:51:49;;;;;;;69.97;29.73;;;-1.20;99.90;;;;;;4979281;28;20038;-79
2021/12/22 00:54:15;;;;;;;65.73;27.77;;;-1.40;99.90;;;;;;4994932;28;20046;-80
2021/12/22 00:56:41;;;;;;;63.30;27.10;;;-1.50;99.90;;;;;;4962460;28;20559;-80
2021/12/22 00:59:06;;;;;;;67.43;30.27;;;-1.60;99.90;;;;;;4994699;28;20383;-80
2021/12/22 01:01:32;;;;;;;73.77;32.87;;;-1.50;99.90;;;;;;4962743;28;20034;-79
2021/12/22 01:03:58;;;;;;;67.80;31.23;;;-1.30;99.90;;;;;;4996080;28;20406;-80
2021/12/22 01:06:24;;;;;;;67.50;29.67;;;-1.00;99.90;;;;;;4977955;28;20038;-81
2021/12/22 01:08:50;;;;;;;61.43;27.73;;;-0.80;99.90;;;;;;4994278;28;20494;-80
2021/12/22 01:11:16;;;;;;;65.23;29.40;;;-0.80;99.90;;;;;;4994132;28;20383;-81
2021/12/22 01:13:42;;;;;;;60.87;27.83;;;-0.70;99.90;;;;;;4978031;28;20293;-79
2021/12/22 01:16:07;;;;;;;53.63;24.83;;;-0.60;99.90;;;;;;4978080;28;20184;-79
2021/12/22 01:18:35;;;;;;;61.00;25.10;;;-0.60;99.90;;;;;;4961788;28;20035;-80
2021/12/22 01:26:22;;;;;;;51.10;23.83;;;-1.20;99.90;;;;;;4994510;28;20269;-79
2021/12/22 01:28:48;;;;;;;52.83;25.13;;;-1.40;99.90;;;;;;4977952;28;20754;-78
2021/12/22 01:31:16;;;;;;;58.43;26.47;;;-1.60;99.90;;;;;;4978116;28;20542;-80
2021/12/22 01:33:42;;;;;;;63.23;27.47;;;-1.70;99.90;;;;;;4994138;28;20471;-79
2021/12/22 01:36:08;;;;;;;62.37;28.50;;;-1.60;99.90;;;;;;4994647;28;20273;-80
2021/12/22 01:38:33;;;;;;;58.10;27.07;;;-1.40;99.90;;;;;;4993831;28;20273;-80
2021/12/22 01:40:59;;;;;;;54.77;24.07;;;-1.30;99.90;;;;;;4995644;28;20530;-78
2021/12/22 01:43:25;;;;;;;61.07;26.53;;;-1.20;99.90;;;;;;4995298;28;20041;-80
2021/12/22 01:51:35;;;;;;;53.93;24.47;;;-0.80;99.90;;;;;;4994673;28;20297;-79
2021/12/22 01:54:06;;;;;;;47.80;23.98;;;-0.70;99.90;;;;;;4993649;28;20289;-80
2021/12/22 01:56:34;;;;;;;48.17;21.97;;;-0.60;99.90;;;;;;4993946;28;20088;-80
2021/12/22 01:59:03;;;;;;;42.73;21.97;;;-0.80;99.90;;;;;;4994345;28;20694;-79
2021/12/22 02:01:32;;;;;;;45.53;22.10;;;-1.10;99.90;;;;;;4993378;28;20794;-80
2021/12/22 02:03:59;;;;;;;48.37;21.10;;;-1.30;99.90;;;;;;4994582;28;20301;-79
2021/12/22 02:06:24;;;;;;;50.53;23.63;;;-1.50;99.90;;;;;;4977282;28;20336;-80
2021/12/22 02:08:52;;;;;;;51.77;24.17;;;-1.50;99.90;;;;;;4996550;28;20663;-78
2021/12/22 02:11:18;;;;;;;48.23;21.60;;;-1.30;99.90;;;;;;4995892;28;20027;-79
2021/12/22 02:13:51;;;;;;;43.53;20.50;;;-1.40;99.90;;;;;;4994829;28;20296;-80
2021/12/22 02:16:19;;;;;;;46.65;21.20;;;-1.70;99.90;;;;;;4994400;28;20266;-79
2021/12/22 02:18:49;;;;;;;45.13;20.43;;;-1.90;99.90;;;;;;4979133;28;20026;-80
2021/12/22 02:21:16;;;;;;;52.03;21.07;;;-2.10;99.90;;;;;;4993455;28;20276;-78
2021/12/22 02:23:43;;;;;;;46.53;22.03;;;-2.10;99.90;;;;;;4961271;28;20281;-78
2021/12/22 02:26:17;;;;;;;48.87;22.43;;;-2.20;99.90;;;;;;4992974;28;20274;-78
2021/12/22 02:28:46;;;;;;;50.50;21.80;;;-2.10;99.90;;;;;;4993050;28;20274;-79
2021/12/22 02:31:17;;;;;;;45.67;20.80;;;-2.20;99.90;;;;;;4994040;28;20674;-78
2021/12/22 02:33:46;;;;;;;44.70;21.30;;;-2.30;99.90;;;;;;4976920;28;20384;-79
2021/12/22 02:38:48;;;;;;;44.97;21.20;;;-2.30;99.90;;;;;;4993416;28;20274;-79
2021/12/22 02:41:17;;;;;;;44.37;20.63;;;-2.30;99.90;;;;;;4992951;28;20030;-78
2021/12/22 02:43:46;;;;;;;53.87;23.33;;;-2.20;99.90;;;;;;4993244;28;20344;-78
2021/12/22 02:46:14;;;;;;;44.27;19.87;;;-2.10;99.90;;;;;;4992999;28;20753;-79
2021/12/22 02:48:40;;;;;;;48.87;21.20;;;-2.10;99.90;;;;;;4993335;28;20277;-78
2021/12/22 02:51:05;;;;;;;43.67;20.10;;;-2.10;99.90;;;;;;4993265;28;20304;-78
2021/12/22 02:56:18;;;;;;;;;;;-2.30;99.90;;;;;;4997342;28;20047;-79
2021/12/22 03:04:04;;;;;;;42.33;18.70;;;-2.30;99.90;;;;;;4994273;28;20272;-78
2021/12/22 03:06:45;;;;;;;40.47;17.77;;;-2.30;99.90;;;;;;4992971;28;20258;-78
2021/12/22 03:09:29;;;;;;;34.17;17.13;;;-2.30;99.90;;;;;;4979741;28;20718;-79
2021/12/22 03:11:57;;;;;;;33.87;17.40;;;-2.30;99.90;;;;;;4996140;28;20282;-78
2021/12/22 03:14:24;;;;;;;37.70;17.10;;;-2.20;99.90;;;;;;4980201;28;20384;-78
2021/12/22 03:16:51;;;;;;;37.17;19.13;;;-2.10;99.90;;;;;;4996223;28;20278;-79
2021/12/22 03:19:19;;;;;;;36.30;18.70;;;-2.00;99.90;;;;;;4995911;28;20269;-78
2021/12/22 03:21:47;;;;;;;45.63;20.97;;;-1.90;99.90;;;;;;4996208;28;20274;-79
2021/12/22 03:24:13;;;;;;;43.17;19.10;;;-1.70;99.90;;;;;;4964933;28;20278;-80
2021/12/22 03:26:42;;;;;;;39.33;18.43;;;-1.40;99.90;;;;;;4996274;28;20273;-79
2021/12/22 03:29:14;;;;;;;31.33;16.27;;;-1.30;99.90;;;;;;4980517;28;20773;-78
2021/12/22 03:31:41;;;;;;;30.45;15.93;;;-1.20;99.90;;;;;;4996132;28;20324;-77
2021/12/22 03:34:07;;;;;;;40.40;16.27;;;-1.30;99.90;;;;;;4979397;28;20084;-78
2021/12/22 03:36:33;;;;;;;26.77;13.43;;;-1.20;99.90;;;;;;4997543;28;20273;-79
2021/12/22 03:38:59;;;;;;;29.73;14.27;;;-1.30;99.90;;;;;;4980480;28;20273;-78
2021/12/22 03:41:25;;;;;;;30.97;13.70;;;-1.40;99.90;;;;;;4997078;28;20364;-80
2021/12/22 03:43:50;;;;;;;35.60;15.70;;;-1.70;99.90;;;;;;4996024;28;20313;-78
2021/12/22 03:46:16;;;;;;;31.77;15.13;;;-1.80;99.90;;;;;;4966075;28;20034;-78
2021/12/22 03:48:42;;;;;;;31.37;15.37;;;-1.90;99.90;;;;;;4998624;28;20034;-78
2021/12/22 03:51:08;;;;;;;35.50;16.17;;;-2.10;99.90;;;;;;4981492;28;20033;-78
2021/12/22 03:53:35;;;;;;;29.57;15.00;;;-1.90;99.90;;;;;;4997828;28;20108;-79
2021/12/22 03:56:00;;;;;;;33.57;15.03;;;-1.80;99.90;;;;;;4980829;28;20755;-79
2021/12/22 03:58:26;;;;;;;26.80;14.93;;;-1.70;99.90;;;;;;4980245;28;20054;-79
2021/12/22 04:00:54;;;;;;;33.27;15.40;;;-1.60;99.90;;;;;;4997261;28;20069;-79
2021/12/22 04:03:23;;;;;;;34.30;15.83;;;-1.50;99.90;;;;;;4995586;28;20030;-77
2021/12/22 04:05:49;;;;;;;32.00;15.30;;;-1.40;99.90;;;;;;4979552;28;20277;-78
2021/12/22 04:08:18;;;;;;;29.17;14.00;;;-1.20;99.90;;;;;;4995971;28;20297;-78
2021/12/22 04:10:46;;;;;;;23.43;12.67;;;-1.10;99.90;;;;;;4995819;28;20381;-79
2021/12/22 04:13:12;;;;;;;27.50;13.17;;;-1.50;99.90;;;;;;4995372;28;20293;-81
2021/12/22 04:15:38;;;;;;;34.00;13.90;;;-1.80;99.90;;;;;;4995156;28;20296;-79
2021/12/22 04:18:03;;;;;;;32.63;14.77;;;-2.00;99.90;;;;;;4996140;28;20032;-81
2021/12/22 04:20:30;;;;;;;33.57;15.00;;;-2.20;99.90;;;;;;4978793;28;20470;-80
2021/12/22 04:22:56;;;;;;;32.97;15.23;;;-2.40;99.90;;;;;;4994847;28;20463;-79
2021/12/22 04:25:22;;;;;;;36.77;16.50;;;-2.50;99.90;;;;;;4996539;28;20816;-79
2021/12/22 04:27:55;;;;;;;32.93;15.03;;;-2.50;99.90;;;;;;4996825;28;20262;-78
2021/12/22 04:30:22;;;;;;;40.60;17.27;;;-2.60;99.90;;;;;;4998097;28;20070;-78
2021/12/22 04:32:49;;;;;;;37.97;16.47;;;-2.60;99.90;;;;;;4996552;28;20285;-80
2021/12/22 04:35:15;;;;;;;35.33;15.90;;;-2.70;99.90;;;;;;4999624;28;20741;-79
2021/12/22 04:37:41;;;;;;;36.50;16.83;;;-2.80;99.90;;;;;;4997347;28;20376;-79
2021/12/22 04:40:07;;;;;;;39.90;16.90;;;-2.80;99.90;;;;;;4997655;28;20758;-79
2021/12/22 04:42:33;;;;;;;39.17;20.57;;;-2.70;99.90;;;;;;4996560;28;20034;-80
2021/12/22 04:45:00;;;;;;;43.53;22.17;;;-2.50;99.90;;;;;;4996980;28;20820;-78
2021/12/22 04:47:26;;;;;;;45.60;20.23;;;-2.10;99.90;;;;;;4964931;28;20037;-77
2021/12/22 04:49:52;;;;;;;31.73;16.20;;;-1.80;99.90;;;;;;4979796;28;20277;-78
2021/12/22 04:52:18;;;;;;;32.50;15.00;;;-1.70;99.90;;;;;;4978108;28;20581;-77
2021/12/22 04:55:17;;;;;;;29.17;14.83;;;-1.90;99.90;;;;;;4977992;28;20080;-78
2021/12/22 04:57:37;;;;;;;31.90;15.63;;;-2.10;99.90;;;;;;4995024;28;20750;-77
2021/12/22 05:00:06;;;;;;;35.77;17.37;;;-2.40;99.90;;;;;;4994754;28;20285;-78
2021/12/22 05:02:32;;;;;;;37.93;17.07;;;-2.40;99.90;;;;;;4994612;28;20301;-77
2021/12/22 05:04:58;;;;;;;36.70;16.80;;;-2.10;99.90;;;;;;4993931;28;20304;-77
2021/12/22 05:07:24;;;;;;;30.80;13.50;;;-1.80;99.90;;;;;;4977951;28;20041;-78
2021/12/22 05:09:50;;;;;;;31.57;13.10;;;-1.80;99.90;;;;;;4995427;28;20266;-79
2021/12/22 05:12:15;;;;;;;26.73;12.90;;;-2.00;99.90;;;;;;4977617;28;20557;-77
2021/12/22 05:14:44;;;;;;;26.80;14.47;;;-2.30;99.90;;;;;;4994617;28;20124;-77
2021/12/22 05:17:18;;;;;;;34.07;17.73;;;-2.30;99.90;;;;;;4994034;28;20054;-78
2021/12/22 05:19:43;;;;;;;33.57;15.83;;;-2.00;99.90;;;;;;4978928;28;20352;-78
2021/12/22 05:22:09;;;;;;;30.20;14.90;;;-1.80;99.90;;;;;;4994026;28;20301;-79
2021/12/22 05:24:35;;;;;;;29.67;12.90;;;-1.60;99.90;;;;;;4977671;28;20027;-78
2021/12/22 05:27:00;;;;;;;24.77;12.47;;;-1.60;99.90;;;;;;4978531;28;20030;-78
2021/12/22 05:29:26;;;;;;;28.43;12.63;;;-1.80;99.90;;;;;;4977589;28;20035;-78
2021/12/22 05:31:54;;;;;;;27.97;13.27;;;-1.80;99.90;;;;;;4994832;28;20065;-77
2021/12/22 05:34:21;;;;;;;25.47;13.20;;;-1.70;99.90;;;;;;4976582;28;20054;-78
2021/12/22 05:36:46;;;;;;;29.00;13.13;;;-1.90;99.90;;;;;;4993694;28;20677;-79
2021/12/22 05:39:12;;;;;;;21.97;12.33;;;-2.10;99.90;;;;;;4977963;28;20372;-79
2021/12/22 05:41:38;;;;;;;26.77;13.10;;;-2.30;99.90;;;;;;4993401;28;20031;-78
2021/12/22 05:44:04;;;;;;;31.13;14.10;;;-2.50;99.90;;;;;;4994732;28;20038;-78
2021/12/22 05:46:29;;;;;;;27.63;13.80;;;-2.40;99.90;;;;;;4993803;28;20034;-78
2021/12/22 05:48:55;;;;;;;33.10;16.27;;;-2.40;99.90;;;;;;4977159;28;20274;-78
2021/12/22 05:51:22;;;;;;;29.40;15.87;;;-2.40;99.90;;;;;;4993264;28;20361;-79
2021/12/22 05:53:48;;;;;;;30.60;15.40;;;-2.20;99.90;;;;;;4994680;28;20030;-78
2021/12/22 05:56:14;;;;;;;27.73;13.73;;;-2.20;99.90;;;;;;4994440;28;20836;-78
2021/12/22 05:58:40;;;;;;;29.73;14.60;;;-2.30;99.90;;;;;;4976982;28;20273;-78
2021/12/22 06:01:06;;;;;;;27.47;12.87;;;-2.30;99.90;;;;;;4976973;28;20088;-79
2021/12/22 06:03:31;;;;;;;26.43;13.73;;;-2.40;99.90;;;;;;4992875;28;20282;-78
2021/12/22 06:05:57;;;;;;;31.53;13.37;;;-2.50;99.90;;;;;;4976741;28;20121;-78
2021/12/22 06:08:23;;;;;;;31.33;13.90;;;-2.60;99.90;;;;;;4977554;28;20422;-78
2021/12/22 06:10:48;;;;;;;26.70;14.27;;;-2.60;99.90;;;;;;4992873;28;20026;-79
2021/12/22 06:13:14;;;;;;;25.57;13.67;;;-2.50;99.90;;;;;;4992805;28;20082;-77
2021/12/22 06:15:40;;;;;;;28.07;13.90;;;-2.50;99.90;;;;;;4993024;28;20374;-78
2021/12/22 06:18:07;;;;;;;26.57;12.77;;;-2.50;99.90;;;;;;4977042;28;20080;-78
2021/12/22 06:20:33;;;;;;;26.73;12.97;;;-2.50;99.90;;;;;;4993817;28;20266;-78
2021/12/22 06:22:59;;;;;;;38.37;14.97;;;-2.50;99.90;;;;;;4977272;28;20274;-79
2021/12/22 06:25:25;;;;;;;28.73;14.47;;;-2.30;99.90;;;;;;4976660;28;20634;-78
2021/12/22 06:27:52;;;;;;;28.03;14.07;;;-2.30;99.90;;;;;;4976610;28;20030;-78
2021/12/22 06:30:20;;;;;;;26.93;13.77;;;-2.20;99.90;;;;;;4992664;28;20744;-78
2021/12/22 06:32:49;;;;;;;27.97;13.60;;;-2.10;99.90;;;;;;4992574;28;20289;-78
2021/12/22 06:35:15;;;;;;;25.10;13.10;;;-2.10;99.90;;;;;;4993696;28;20761;-78
2021/12/22 06:37:43;;;;;;;28.50;13.67;;;-2.00;99.90;;;;;;4993850;28;20279;-77
2021/12/22 06:40:09;;;;;;;31.07;12.53;;;-1.90;99.90;;;;;;4992556;28;20485;-78
2021/12/22 06:42:38;;;;;;;31.97;13.00;;;-1.90;99.90;;;;;;4976403;28;20277;-78
2021/12/22 06:45:05;;;;;;;25.07;13.70;;;-1.90;99.90;;;;;;4994882;28;20746;-79
2021/12/22 06:47:31;;;;;;;26.47;13.37;;;-1.90;99.90;;;;;;4996648;28;20733;-78
2021/12/22 06:49:56;;;;;;;31.03;16.07;;;-1.80;99.90;;;;;;4996509;28;20266;-77
2021/12/22 06:52:22;;;;;;;27.90;14.00;;;-1.70;99.90;;;;;;4998180;28;20023;-78
2021/12/22 06:54:48;;;;;;;28.93;14.43;;;-1.60;99.90;;;;;;4980442;28;20026;-79
2021/12/22 06:57:16;;;;;;;26.33;13.70;;;-1.40;99.90;;;;;;4980145;28;20026;-79
2021/12/22 06:59:41;;;;;;;25.50;12.57;;;-1.30;99.90;;;;;;4997010;28;20031;-77
2021/12/22 07:02:07;;;;;;;26.70;13.63;;;-1.50;99.90;;;;;;4996605;28;20268;-78
2021/12/22 07:04:33;;;;;;;25.77;14.23;;;-1.60;99.90;;;;;;4996509;28;20443;-78
2021/12/22 07:06:58;;;;;;;32.77;15.90;;;-1.40;99.90;;;;;;4997425;28;20109;-79
2021/12/22 07:09:26;;;;;;;19.83;12.17;;;-1.10;99.90;;;;;;4980110;28;20041;-78
2021/12/22 07:11:52;;;;;;;26.07;13.13;;;-1.00;99.90;;;;;;4981322;28;20031;-78
2021/12/22 07:14:18;;;;;;;28.83;13.20;;;-1.10;99.90;;;;;;4982245;28;20368;-79
2021/12/22 07:16:45;;;;;;;23.30;12.43;;;-1.00;99.90;;;;;;4997520;28;20269;-78
2021/12/22 07:19:12;;;;;;;24.57;12.20;;;-0.90;99.90;;;;;;4996604;28;20034;-80
2021/12/22 07:21:38;;;;;;;24.87;12.73;;;-1.00;99.90;;;;;;4995845;28;20618;-79
2021/12/22 07:24:05;;;;;;;25.67;13.27;;;-0.90;99.90;;;;;;4979668;28;20286;-79
2021/12/22 07:26:30;;;;;;;23.17;12.70;;;-0.80;99.90;;;;;;4995795;28;20490;-79
2021/12/22 07:28:56;;;;;;;24.50;12.17;;;-0.60;99.90;;;;;;4995664;28;20261;-79
2021/12/22 07:31:22;;;;;;;24.93;12.90;;;-0.50;99.90;;;;;;4996145;28;20519;-79
2021/12/22 07:34:07;;;;;;;18.33;10.97;;;-0.40;99.90;;;;;;4979194;28;20175;-78
2021/12/22 07:36:40;;;;;;;20.00;10.77;;;-0.40;99.90;;;;;;4995783;28;20023;-80
2021/12/22 07:39:06;;;;;;;24.33;11.97;;;-0.50;99.90;;;;;;4996136;28;20319;-80
2021/12/22 07:41:32;;;;;;;19.53;9.93;;;-0.50;99.90;;;;;;4979282;28;20273;-80
2021/12/22 07:43:57;;;;;;;20.20;9.63;;;-0.50;99.90;;;;;;4995941;28;20035;-80
2021/12/22 07:46:23;;;;;;;20.10;10.47;;;-0.80;99.90;;;;;;4980192;28;20498;-80
2021/12/22 07:48:49;;;;;;;26.00;11.73;;;-1.10;99.90;;;;;;4979728;28;20460;-80
2021/12/22 07:51:15;;;;;;;24.37;12.37;;;-1.10;99.90;;;;;;4996000;28;20118;-80
2021/12/22 07:53:41;;;;;;;21.00;10.73;;;-0.90;99.90;;;;;;4996106;28;20380;-81
2021/12/22 07:56:07;;;;;;;22.13;9.87;;;-0.80;99.90;;;;;;4994487;28;20411;-79
2021/12/22 07:58:32;;;;;;;26.70;11.23;;;-1.00;99.90;;;;;;4962987;28;20038;-78
2021/12/22 08:00:58;;;;;;;41.93;17.53;;;-1.30;99.90;;;;;;4979730;28;20057;-79
2021/12/22 08:03:25;;;;;;;74.30;28.17;;;-1.00;99.90;;;;;;4996811;28;20466;-80
2021/12/22 08:05:52;;;;;;;52.27;20.53;;;-0.50;99.90;;;;;;4996775;28;20023;-79
2021/12/22 08:08:18;;;;;;;121.00;49.50;;;-0.20;99.90;;;;;;4996549;28;20289;-79
2021/12/22 08:10:47;;;;;;;27.63;13.13;;;0.00;99.90;;;;;;4995349;28;20694;-80
2021/12/22 08:13:15;;;;;;;24.27;11.87;;;-0.30;99.90;;;;;;4995038;28;20034;-80
2021/12/22 08:15:41;;;;;;;26.17;11.43;;;-0.40;99.90;;;;;;4996183;28;20030;-79
2021/12/22 08:18:07;;;;;;;24.30;12.00;;;-0.30;99.90;;;;;;4995009;28;20030;-80
2021/12/22 08:20:34;;;;;;;20.47;11.23;;;-0.20;99.90;;;;;;4994939;28;20030;-80
2021/12/22 08:23:00;;;;;;;20.33;11.50;;;-0.10;99.90;;;;;;4994865;28;20026;-80
2021/12/22 08:25:25;;;;;;;20.43;11.83;;;0.20;99.90;;;;;;4978762;28;20037;-80
2021/12/22 08:27:52;;;;;;;39.07;24.33;;;0.60;99.90;;;;;;4995232;28;20042;-79
2021/12/22 08:30:17;;;;;;;37.53;24.90;;;0.90;99.90;;;;;;4996300;28;20509;-82
2021/12/22 08:32:43;;;;;;;24.47;14.53;;;0.80;98.70;;;;;;4996314;28;20034;-81
2021/12/22 08:35:12;;;;;;;24.43;12.70;;;0.90;98.30;;;;;;4996606;28;20065;-83
2021/12/22 08:40:23;;;;;;;22.93;12.00;;;0.90;97.50;;;;;;4997053;28;20101;-83
2021/12/22 08:42:49;;;;;;;23.50;13.67;;;1.10;96.20;;;;;;4995974;28;20525;-81
2021/12/22 08:45:17;;;;;;;23.10;13.03;;;1.30;97.30;;;;;;4996119;28;20101;-83
2021/12/22 08:47:43;;;;;;;31.13;14.83;;;1.90;97.50;;;;;;4980693;28;20035;-83
2021/12/22 08:50:12;;;;;;;33.80;17.73;;;2.20;96.20;;;;;;4997014;28;20105;-84
2021/12/22 08:52:37;;;;;;;33.83;16.47;;;2.60;97.60;;;;;;4996058;28;20105;-83
2021/12/22 08:55:05;;;;;;;37.37;15.40;;;2.90;97.40;;;;;;4996053;28;20069;-80
2021/12/22 08:57:30;;;;;;;31.07;13.73;;;2.90;94.20;;;;;;4996372;28;20023;-84
2021/12/22 08:59:56;;;;;;;29.70;13.50;;;2.80;92.70;;;;;;4996240;28;20426;-80
2021/12/22 09:02:22;;;;;;;41.77;14.50;;;2.90;93.40;;;;;;4979869;28;20151;-84
2021/12/22 09:04:48;;;;;;;33.77;13.60;;;3.10;93.90;;;;;;4995903;28;20062;-85
2021/12/22 09:07:14;;;;;;;34.57;14.17;;;3.20;92.00;;;;;;4995450;28;20498;-84
2021/12/22 09:09:40;;;;;;;59.27;21.50;;;3.40;92.40;;;;;;4996470;28;20030;-84
2021/12/22 09:12:07;;;;;;;38.53;18.77;;;3.80;94.70;;;;;;4996396;28;20430;-80
2021/12/22 09:14:33;;;;;;;39.60;19.17;;;4.60;94.30;;;;;;4998456;28;20042;-84
2021/12/22 09:16:59;;;;;;;32.60;14.60;;;5.10;93.00;;;;;;4999187;28;20022;-78
2021/12/22 09:19:25;;;;;;;34.50;17.40;;;5.70;88.10;;;;;;4983204;28;20444;-85
2021/12/22 09:21:51;;;;;;;31.60;15.90;;;5.80;84.40;;;;;;4971200;28;20030;-85
2021/12/22 09:24:18;;;;;;;25.53;15.23;;;6.00;82.40;;;;;;5001386;28;20057;-84
2021/12/22 09:26:44;;;;;;;30.23;15.33;;;5.90;80.80;;;;;;4984276;28;20129;-84
2021/12/22 09:29:10;;;;;;;26.00;13.20;;;5.90;79.10;;;;;;5001899;28;20109;-85
2021/12/22 09:31:36;;;;;;;27.70;15.47;;;5.80;78.90;;;;;;5004039;28;20050;-86
2021/12/22 09:34:02;;;;;;;23.60;14.50;;;5.70;77.40;;;;;;5005336;28;20065;-80
2021/12/22 09:36:28;;;;;;;24.00;13.27;;;5.70;78.00;;;;;;4988639;28;20073;-84
2021/12/22 09:38:54;;;;;;;20.33;11.33;;;5.70;77.90;;;;;;5003140;28;20041;-78
2021/12/22 09:41:19;;;;;;;17.97;10.93;;;5.80;74.90;;;;;;5005467;28;20113;-85
2021/12/22 09:43:45;;;;;;;21.50;13.07;;;5.70;73.00;;;;;;4998068;28;20176;-84
2021/12/22 09:46:15;;;;;;;21.23;12.87;;;5.60;75.60;;;;;;4982439;28;20022;-86
2021/12/22 09:53:44;;;;;;;15.37;10.20;;;6.00;73.20;;;;;;5013875;28;20045;-84
2021/12/22 09:56:11;;;;;;;18.00;10.70;;;6.30;71.00;;;;;;5010481;28;20031;-83
2021/12/22 09:58:39;;;;;;;20.23;11.77;;;6.10;67.70;;;;;;4992423;28;20098;-84
2021/12/22 10:01:05;;;;;;;20.70;11.73;;;5.90;69.60;;;;;;5000966;28;20064;-78
2021/12/22 10:03:31;;;;;;;18.83;11.70;;;6.10;71.80;;;;;;4979572;28;20363;-85
2021/12/22 10:05:57;;;;;;;17.33;12.13;;;6.40;72.50;;;;;;4995974;28;20501;-84
2021/12/22 10:08:27;;;;;;;16.53;10.50;;;6.60;70.10;;;;;;4996026;28;20471;-84
2021/12/22 10:11:01;;;;;;;18.20;11.53;;;6.60;68.60;;;;;;4994502;28;20031;-84
2021/12/22 10:13:29;;;;;;;16.90;11.10;;;6.60;70.00;;;;;;4994290;28;20026;-84
2021/12/22 10:15:56;;;;;;;17.97;11.50;;;6.60;68.80;;;;;;4995174;28;20494;-83
2021/12/22 10:18:24;;;;;;;18.47;10.57;;;6.50;67.60;;;;;;4995295;28;20030;-84
2021/12/22 10:20:53;;;;;;;17.13;11.30;;;6.50;67.20;;;;;;4993756;28;20022;-84
2021/12/22 10:23:29;;;;;;;16.57;11.17;;;6.10;68.80;;;;;;4994404;28;20113;-85
2021/12/22 10:26:04;;;;;;;15.60;10.93;;;5.90;70.00;;;;;;4995677;28;20031;-84
2021/12/22 10:28:44;;;;;;;17.93;11.57;;;5.80;71.20;;;;;;4995557;28;20026;-85
2021/12/22 10:31:10;;;;;;;17.30;10.70;;;5.70;71.90;;;;;;4995326;28;20022;-83
2021/12/22 10:33:39;;;;;;;17.43;10.90;;;5.90;73.20;;;;;;4994727;28;20113;-82
2021/12/22 10:36:21;;;;;;;17.20;10.70;;;6.00;71.80;;;;;;4996080;28;20088;-85
2021/12/22 10:39:05;;;;;;;18.63;11.03;;;5.90;70.00;;;;;;4995925;28;20018;-85
2021/12/22 10:41:32;;;;;;;18.30;11.33;;;5.90;69.40;;;;;;4997643;28;20031;-84
2021/12/22 10:43:58;;;;;;;21.77;11.93;;;5.90;70.30;;;;;;5001797;28;20034;-86
2021/12/22 10:46:31;;;;;;;18.83;11.47;;;6.00;70.60;;;;;;4999416;28;20128;-86
2021/12/22 10:49:17;;;;;;;;;;;6.10;71.70;;;;;;5006090;28;20463;-88
2021/12/22 10:51:59;;;;;;;15.03;10.70;;;6.40;70.70;;;;;;5006543;28;20269;-89
2021/12/22 10:54:35;;;;;;;19.17;11.23;;;6.40;70.90;;;;;;5007900;28;20032;-86
2021/12/22 10:57:04;;;;;;;15.97;10.73;;;6.50;70.90;;;;;;5007445;28;20030;-87
2021/12/22 10:59:49;;;;;;;18.10;11.03;;;6.50;69.30;;;;;;5001505;28;20048;-88
2021/12/22 11:02:27;;;;;;;15.47;10.57;;;6.40;69.80;;;;;;5003138;28;20023;-88
2021/12/22 11:04:53;;;;;;;22.43;11.53;;;6.30;69.30;;;;;;5001250;28;20455;-89
2021/12/22 11:07:24;;;;;;;20.03;11.53;;;6.20;68.10;;;;;;5002167;28;20027;-88
2021/12/22 11:09:50;;;;;;;23.77;11.33;;;6.00;68.20;;;;;;5003238;28;20029;-89
2021/12/22 11:12:17;;;;;;;19.40;10.83;;;6.00;70.70;;;;;;5002331;28;20026;-87
2021/12/22 11:14:47;;;;;;;18.07;11.10;;;6.30;69.40;;;;;;4986380;28;20042;-87
2021/12/22 11:17:19;;;;;;;16.37;10.97;;;6.10;67.50;;;;;;5002235;28;20128;-81
2021/12/22 11:19:56;;;;;;;21.75;10.98;;;5.90;69.20;;;;;;5002555;28;20037;-87
2021/12/22 11:22:37;;;;;;;24.33;12.67;;;5.90;68.90;;;;;;5003777;28;20362;-83
2021/12/22 11:25:05;;;;;;;20.00;10.83;;;5.80;69.10;;;;;;5007698;28;20030;-85
2021/12/22 11:27:31;;;;;;;25.90;12.00;;;5.70;71.50;;;;;;5005927;28;20042;-86
2021/12/22 11:29:58;;;;;;;20.20;11.13;;;5.90;71.30;;;;;;5004455;28;20026;-88
2021/12/22 11:32:30;;;;;;;20.10;11.27;;;6.00;70.70;;;;;;5006514;28;20031;-85
2021/12/22 11:34:58;;;;;;;22.13;10.87;;;6.10;69.60;;;;;;5006647;28;20070;-88
2021/12/22 11:37:25;;;;;;;20.27;10.77;;;6.30;70.20;;;;;;5006318;28;20046;-82
2021/12/22 11:39:52;;;;;;;20.90;10.33;;;6.40;69.20;;;;;;4989838;28;20040;-84
2021/12/22 11:42:21;;;;;;;17.77;10.90;;;6.50;69.70;;;;;;5005129;28;20168;-83
2021/12/22 11:44:54;;;;;;;16.10;10.00;;;6.20;68.80;;;;;;4988836;28;20030;-85
2021/12/22 11:47:21;;;;;;;18.73;10.73;;;6.00;69.90;;;;;;5004693;28;20022;-85
2021/12/22 11:49:54;;;;;;;17.30;10.97;;;5.80;69.80;;;;;;5005681;28;20026;-85
2021/12/22 11:52:36;;;;;;;19.47;10.67;;;5.70;69.90;;;;;;5003713;28;20018;-83
2021/12/22 11:55:17;;;;;;;17.60;11.20;;;5.50;70.00;;;;;;5004606;28;20042;-85
2021/12/22 11:57:46;;;;;;;20.90;10.90;;;5.60;70.80;;;;;;5003196;28;20022;-84
2021/12/22 12:00:40;;;;;;;15.60;9.50;;;5.90;71.50;;;;;;5003232;28;20035;-85
2021/12/22 12:03:22;;;;;;;;;;;6.10;69.80;;;;;;5000472;28;20034;-85
2021/12/22 12:06:09;;;;;;;19.17;10.70;;;6.10;69.70;;;;;;5001294;28;19905;-85
2021/12/22 12:08:41;;;;;;;19.67;10.27;;;6.10;69.90;;;;;;5001777;28;20026;-81
2021/12/22 12:11:10;;;;;;;18.20;9.97;;;6.10;70.80;;;;;;5002314;28;20467;-84
2021/12/22 12:13:48;;;;;;;18.77;10.20;;;6.20;71.00;;;;;;5002420;28;20100;-85
2021/12/22 12:22:48;;;;;;;17.73;10.77;;;5.80;71.30;;;;;;4960029;29;20046;-79
2021/12/22 12:25:14;;;;;;;15.37;9.93;;;5.70;70.90;;;;;;5002578;28;20115;-86
2021/12/22 12:27:51;;;;;;;18.27;10.97;;;5.20;70.70;;;;;;4999517;28;20018;-86
2021/12/22 12:30:44;;;;;;;19.23;10.53;;;5.00;72.60;;;;;;4985821;28;20379;-86
2021/12/22 12:33:24;;;;;;;18.33;9.73;;;4.90;74.00;;;;;;5002472;28;20537;-87
2021/12/22 12:36:04;;;;;;;20.70;10.20;;;5.10;74.40;;;;;;5001434;28;20415;-85
2021/12/22 12:38:49;;;;;;;17.33;10.30;;;5.10;73.90;;;;;;5000372;28;20045;-84
2021/12/22 12:41:17;;;;;;;17.67;11.40;;;4.80;73.80;;;;;;4999607;28;20030;-85
2021/12/22 12:43:51;;;;;;;17.53;11.60;;;4.60;74.30;;;;;;4998779;28;20099;-87
2021/12/22 12:46:20;;;;;;;19.07;10.87;;;4.60;75.80;;;;;;4999073;28;20426;-85
2021/12/22 12:48:46;;;;;;;16.37;11.03;;;4.60;76.40;;;;;;4999894;28;20391;-86
2021/12/22 12:51:38;;;;;;;16.53;10.10;;;4.60;76.30;;;;;;4998223;28;20034;-87
2021/12/22 12:54:17;;;;;;;18.20;11.07;;;4.40;75.30;;;;;;5000744;28;20085;-86
2021/12/22 12:56:57;;;;;;;15.27;10.23;;;4.20;77.20;;;;;;4998564;28;20122;-85
2021/12/22 12:59:51;;;;;;;17.37;11.07;;;4.10;77.00;;;;;;4999187;28;20035;-78
2021/12/22 13:02:22;;;;;;;;;;;4.10;76.80;;;;;;4998594;28;20033;-85
2021/12/22 13:04:53;;;;;;;21.30;10.90;;;3.80;76.80;;;;;;4999159;28;19906;-86
2021/12/22 13:07:20;;;;;;;17.07;9.53;;;3.50;78.00;;;;;;4983059;28;20034;-87
2021/12/22 13:09:47;;;;;;;15.50;10.60;;;3.40;80.20;;;;;;4998053;28;20073;-85
2021/12/22 13:12:30;;;;;;;15.73;9.97;;;3.50;80.80;;;;;;4998423;28;20117;-85
2021/12/22 13:17:55;;;;;;;19.13;11.43;;;4.00;82.30;;;;;;5004715;28;20097;-83